sensor_id;sensor_type;location;lat;lon;timestamp;pressure;altitude;pressure_sealevel;temperature;humidity
36190;BME280;22232;50.914;13.858;2022-10-19T00:01:17;98811.09;;;11.93;100.00
36190;BME280;22232;50.914;13.858;2022-10-19T00:03:47;98807.00;;;11.90;100.00
36190;BME280;22232;50.914;13.858;2022-10-19T00:06:25;98803.31;;;11.85;100.00
36190;BME280;22232;50.914;13.858;2022-10-19T00:08:56;98812.34;;;11.84;100.00
36190;BME280;22232;50.914;13.858;2022-10-19T00:11:26;98816.91;;;11.77;100.00
36190;BME280;22232;50.914;13.858;2022-10-19T00:13:54;98817.34;;;11.67;100.00
36190;BME280;22232;50.914;13.858;2022-10-19T00:16:25;98815.72;;;11.59;100.00
36190;BME280;22232;50.914;13.858;2022-10-19T00:18:55;98816.56;;;11.53;100.00
36190;BME280;22232;50.914;13.858;2022-10-19T00:21:23;98820.28;;;11.52;100.00
36190;BME280;22232;50.914;13.858;2022-10-19T00:23:51;98826.84;;;11.56;100.00
36190;BME280;22232;50.914;13.858;2022-10-19T00:26:19;98822.53;;;11.55;100.00
36190;BME280;22232;50.914;13.858;2022-10-19T00:28:46;98814.75;;;11.54;100.00
36190;BME280;22232;50.914;13.858;2022-10-19T00:31:16;98817.22;;;11.48;100.00
36190;BME280;22232;50.914;13.858;2022-10-19T00:33:45;98817.44;;;11.47;100.00
36190;BME280;22232;50.914;13.858;2022-10-19T00:36:15;98804.06;;;11.47;100.00
36190;BME280;22232;50.914;13.858;2022-10-19T00:38:42;98812.53;;;11.37;100.00
36190;BME280;22232;50.914;13.858;2022-10-19T00:41:10;98812.75;;;11.36;100.00
36190;BME280;22232;50.914;13.858;2022-10-19T00:46:21;98818.97;;;11.16;100.00
36190;BME280;22232;50.914;13.858;2022-10-19T00:48:50;98816.53;;;11.08;100.00
36190;BME280;22232;50.914;13.858;2022-10-19T00:51:19;98814.72;;;11.02;100.00
36190;BME280;22232;50.914;13.858;2022-10-19T00:53:47;98825.16;;;11.03;100.00
36190;BME280;22232;50.914;13.858;2022-10-19T00:56:15;98828.66;;;10.97;100.00
36190;BME280;22232;50.914;13.858;2022-10-19T00:58:44;98821.50;;;10.91;100.00
36190;BME280;22232;50.914;13.858;2022-10-19T01:01:15;98828.25;;;10.94;100.00
36190;BME280;22232;50.914;13.858;2022-10-19T01:03:44;98823.13;;;10.92;100.00
36190;BME280;22232;50.914;13.858;2022-10-19T01:06:13;98827.03;;;10.83;100.00
36190;BME280;22232;50.914;13.858;2022-10-19T01:08:43;98831.16;;;10.79;100.00
36190;BME280;22232;50.914;13.858;2022-10-19T01:11:35;98827.47;;;10.73;100.00
36190;BME280;22232;50.914;13.858;2022-10-19T01:20:06;98822.56;;;10.57;100.00
36190;BME280;22232;50.914;13.858;2022-10-19T01:26:35;98811.28;;;10.42;100.00
36190;BME280;22232;50.914;13.858;2022-10-19T01:32:04;98796.69;;;10.38;100.00
36190;BME280;22232;50.914;13.858;2022-10-19T01:34:43;98795.88;;;10.37;100.00
36190;BME280;22232;50.914;13.858;2022-10-19T01:37:50;98793.19;;;10.30;100.00
36190;BME280;22232;50.914;13.858;2022-10-19T01:41:00;98791.97;;;10.26;100.00
36190;BME280;22232;50.914;13.858;2022-10-19T01:46:38;98797.69;;;10.17;100.00
36190;BME280;22232;50.914;13.858;2022-10-19T01:52:08;98795.00;;;10.10;100.00
36190;BME280;22232;50.914;13.858;2022-10-19T01:54:40;98794.59;;;10.13;100.00
36190;BME280;22232;50.914;13.858;2022-10-19T01:57:11;98792.13;;;10.11;100.00
36190;BME280;22232;50.914;13.858;2022-10-19T01:59:41;98790.50;;;10.10;100.00
36190;BME280;22232;50.914;13.858;2022-10-19T02:02:12;98796.84;;;10.09;100.00
36190;BME280;22232;50.914;13.858;2022-10-19T02:04:41;98791.50;;;10.03;100.00
36190;BME280;22232;50.914;13.858;2022-10-19T02:07:10;98795.81;;;9.97;100.00
36190;BME280;22232;50.914;13.858;2022-10-19T02:09:37;98792.13;;;9.98;100.00
36190;BME280;22232;50.914;13.858;2022-10-19T02:12:08;98794.56;;;9.93;100.00
36190;BME280;22232;50.914;13.858;2022-10-19T02:14:41;98803.19;;;9.95;100.00
36190;BME280;22232;50.914;13.858;2022-10-19T02:17:14;98797.25;;;9.93;100.00
36190;BME280;22232;50.914;13.858;2022-10-19T02:19:43;98794.56;;;9.93;100.00
36190;BME280;22232;50.914;13.858;2022-10-19T02:22:11;98805.22;;;9.93;100.00
36190;BME280;22232;50.914;13.858;2022-10-19T02:24:39;98799.69;;;9.88;100.00
36190;BME280;22232;50.914;13.858;2022-10-19T02:27:07;98805.81;;;9.88;100.00
36190;BME280;22232;50.914;13.858;2022-10-19T02:29:35;98803.56;;;9.85;100.00
36190;BME280;22232;50.914;13.858;2022-10-19T02:32:06;98792.09;;;9.85;100.00
36190;BME280;22232;50.914;13.858;2022-10-19T02:34:34;98783.28;;;9.84;100.00
36190;BME280;22232;50.914;13.858;2022-10-19T02:37:03;98792.31;;;9.83;100.00
36190;BME280;22232;50.914;13.858;2022-10-19T02:39:31;98784.72;;;9.80;100.00
36190;BME280;22232;50.914;13.858;2022-10-19T02:42:11;98784.50;;;9.82;100.00
36190;BME280;22232;50.914;13.858;2022-10-19T02:44:56;98786.97;;;9.83;100.00
36190;BME280;22232;50.914;13.858;2022-10-19T02:47:27;98793.13;;;9.84;100.00
36190;BME280;22232;50.914;13.858;2022-10-19T02:49:56;98793.31;;;9.82;100.00
36190;BME280;22232;50.914;13.858;2022-10-19T02:52:23;98797.41;;;9.85;100.00
36190;BME280;22232;50.914;13.858;2022-10-19T02:54:51;98796.59;;;9.84;100.00
36190;BME280;22232;50.914;13.858;2022-10-19T02:57:23;98797.63;;;9.83;100.00
36190;BME280;22232;50.914;13.858;2022-10-19T02:59:51;98793.31;;;9.82;100.00
36190;BME280;22232;50.914;13.858;2022-10-19T03:02:20;98786.34;;;9.81;100.00
36190;BME280;22232;50.914;13.858;2022-10-19T03:04:47;98796.59;;;9.84;100.00
36190;BME280;22232;50.914;13.858;2022-10-19T03:07:17;98798.63;;;9.82;100.00
36190;BME280;22232;50.914;13.858;2022-10-19T03:09:45;98786.34;;;9.75;100.00
36190;BME280;22232;50.914;13.858;2022-10-19T03:12:13;98795.78;;;9.77;100.00
36190;BME280;22232;50.914;13.858;2022-10-19T03:14:41;98787.16;;;9.75;100.00
36190;BME280;22232;50.914;13.858;2022-10-19T03:17:09;98783.44;;;9.76;100.00
36190;BME280;22232;50.914;13.858;2022-10-19T03:19:37;98786.34;;;9.75;100.00
36190;BME280;22232;50.914;13.858;2022-10-19T03:22:05;98781.00;;;9.75;100.00
36190;BME280;22232;50.914;13.858;2022-10-19T03:24:33;98775.47;;;9.76;100.00
36190;BME280;22232;50.914;13.858;2022-10-19T03:27:00;98777.09;;;9.71;100.00
36190;BME280;22232;50.914;13.858;2022-10-19T03:29:28;98773.59;;;9.70;100.00
36190;BME280;22232;50.914;13.858;2022-10-19T03:31:55;98774.84;;;9.74;100.00
36190;BME280;22232;50.914;13.858;2022-10-19T03:34:23;98775.69;;;9.75;100.00
36190;BME280;22232;50.914;13.858;2022-10-19T03:36:50;98773.59;;;9.77;100.00
36190;BME280;22232;50.914;13.858;2022-10-19T03:39:18;98773.44;;;9.78;100.00
36190;BME280;22232;50.914;13.858;2022-10-19T03:41:45;98781.41;;;9.78;100.00
36190;BME280;22232;50.914;13.858;2022-10-19T03:44:13;98783.06;;;9.79;100.00
36190;BME280;22232;50.914;13.858;2022-10-19T03:46:41;98782.22;;;9.79;100.00
36190;BME280;22232;50.914;13.858;2022-10-19T03:49:08;98778.53;;;9.73;100.00
36190;BME280;22232;50.914;13.858;2022-10-19T03:51:36;98781.19;;;9.73;100.00
36190;BME280;22232;50.914;13.858;2022-10-19T03:54:06;98785.91;;;9.71;100.00
36190;BME280;22232;50.914;13.858;2022-10-19T03:56:35;98795.31;;;9.67;100.00
36190;BME280;22232;50.914;13.858;2022-10-19T03:59:04;98796.97;;;9.68;100.00
36190;BME280;22232;50.914;13.858;2022-10-19T04:01:38;98792.88;;;9.65;100.00
36190;BME280;22232;50.914;13.858;2022-10-19T04:04:09;98793.28;;;9.62;100.00
36190;BME280;22232;50.914;13.858;2022-10-19T04:06:39;98796.31;;;9.59;100.00
36190;BME280;22232;50.914;13.858;2022-10-19T04:09:11;98799.41;;;9.56;100.00
36190;BME280;22232;50.914;13.858;2022-10-19T04:11:40;98799.56;;;9.55;100.00
36190;BME280;22232;50.914;13.858;2022-10-19T04:14:10;98808.19;;;9.57;100.00
36190;BME280;22232;50.914;13.858;2022-10-19T04:16:53;98805.53;;;9.57;100.00
36190;BME280;22232;50.914;13.858;2022-10-19T04:19:20;98806.97;;;9.59;100.00
36190;BME280;22232;50.914;13.858;2022-10-19T04:21:48;98804.31;;;9.53;100.00
36190;BME280;22232;50.914;13.858;2022-10-19T04:24:17;98805.72;;;9.55;100.00
36190;BME280;22232;50.914;13.858;2022-10-19T04:26:47;98804.09;;;9.61;100.00
36190;BME280;22232;50.914;13.858;2022-10-19T04:29:16;98809.66;;;9.59;100.00
36190;BME280;22232;50.914;13.858;2022-10-19T04:31:47;98801.84;;;9.58;100.00
36190;BME280;22232;50.914;13.858;2022-10-19T04:34:16;98801.03;;;9.57;100.00
36190;BME280;22232;50.914;13.858;2022-10-19T04:36:44;98806.75;;;9.54;100.00
36190;BME280;22232;50.914;13.858;2022-10-19T04:39:11;98808.19;;;9.50;100.00
36190;BME280;22232;50.914;13.858;2022-10-19T04:41:39;98805.69;;;9.49;100.00
36190;BME280;22232;50.914;13.858;2022-10-19T04:44:08;98809.78;;;9.45;100.00
36190;BME280;22232;50.914;13.858;2022-10-19T04:46:35;98812.47;;;9.45;100.00
36190;BME280;22232;50.914;13.858;2022-10-19T04:49:04;98820.44;;;9.45;100.00
36190;BME280;22232;50.914;13.858;2022-10-19T04:51:33;98813.03;;;9.40;100.00
36190;BME280;22232;50.914;13.858;2022-10-19T04:54:02;98826.34;;;9.40;100.00
36190;BME280;22232;50.914;13.858;2022-10-19T04:56:30;98817.75;;;9.38;100.00
36190;BME280;22232;50.914;13.858;2022-10-19T04:58:59;98828.81;;;9.35;100.00
36190;BME280;22232;50.914;13.858;2022-10-19T05:01:28;98822.06;;;9.39;100.00
36190;BME280;22232;50.914;13.858;2022-10-19T05:03:59;98821.00;;;9.33;100.00
36190;BME280;22232;50.914;13.858;2022-10-19T05:06:28;98818.53;;;9.32;100.00
36190;BME280;22232;50.914;13.858;2022-10-19T05:08:56;98823.88;;;9.32;100.00
36190;BME280;22232;50.914;13.858;2022-10-19T05:11:23;98821.38;;;9.24;100.00
36190;BME280;22232;50.914;13.858;2022-10-19T05:13:51;98822.19;;;9.24;100.00
36190;BME280;22232;50.914;13.858;2022-10-19T05:16:20;98828.78;;;9.28;100.00
36190;BME280;22232;50.914;13.858;2022-10-19T05:18:50;98823.44;;;9.28;100.00
36190;BME280;22232;50.914;13.858;2022-10-19T05:21:18;98826.50;;;9.25;100.00
36190;BME280;22232;50.914;13.858;2022-10-19T05:23:50;98834.09;;;9.28;100.00
36190;BME280;22232;50.914;13.858;2022-10-19T05:26:20;98822.22;;;9.31;100.00
36190;BME280;22232;50.914;13.858;2022-10-19T05:28:49;98830.59;;;9.28;100.00
36190;BME280;22232;50.914;13.858;2022-10-19T05:31:19;98830.41;;;9.29;100.00
36190;BME280;22232;50.914;13.858;2022-10-19T05:33:46;98830.16;;;9.24;100.00
36190;BME280;22232;50.914;13.858;2022-10-19T05:36:24;98819.72;;;9.23;100.00
36190;BME280;22232;50.914;13.858;2022-10-19T05:38:56;98825.66;;;9.25;100.00
36190;BME280;22232;50.914;13.858;2022-10-19T05:41:25;98830.56;;;9.21;100.00
36190;BME280;22232;50.914;13.858;2022-10-19T05:43:55;98834.25;;;9.20;100.00
36190;BME280;22232;50.914;13.858;2022-10-19T05:46:24;98836.69;;;9.22;100.00
36190;BME280;22232;50.914;13.858;2022-10-19T05:48:54;98833.66;;;9.25;100.00
36190;BME280;22232;50.914;13.858;2022-10-19T05:51:23;98838.97;;;9.25;100.00
36190;BME280;22232;50.914;13.858;2022-10-19T05:53:52;98834.03;;;9.22;100.00
36190;BME280;22232;50.914;13.858;2022-10-19T05:56:23;98839.59;;;9.27;100.00
36190;BME280;22232;50.914;13.858;2022-10-19T05:58:51;98838.16;;;9.24;100.00
36190;BME280;22232;50.914;13.858;2022-10-19T06:01:19;98838.53;;;9.21;100.00
36190;BME280;22232;50.914;13.858;2022-10-19T06:03:50;98842.66;;;9.24;100.00
36190;BME280;22232;50.914;13.858;2022-10-19T06:06:19;98847.41;;;9.28;100.00
36190;BME280;22232;50.914;13.858;2022-10-19T06:08:47;98845.13;;;9.25;100.00
36190;BME280;22232;50.914;13.858;2022-10-19T06:11:21;98854.38;;;9.29;100.00
36190;BME280;22232;50.914;13.858;2022-10-19T06:13:52;98848.22;;;9.29;100.00
36190;BME280;22232;50.914;13.858;2022-10-19T06:16:22;98849.28;;;9.34;100.00
36190;BME280;22232;50.914;13.858;2022-10-19T06:18:51;98850.91;;;9.35;100.00
36190;BME280;22232;50.914;13.858;2022-10-19T06:21:23;98860.53;;;9.36;100.00
36190;BME280;22232;50.914;13.858;2022-10-19T06:23:52;98858.28;;;9.33;100.00
36190;BME280;22232;50.914;13.858;2022-10-19T06:26:20;98874.66;;;9.37;100.00
36190;BME280;22232;50.914;13.858;2022-10-19T06:28:48;98861.16;;;9.38;100.00
36190;BME280;22232;50.914;13.858;2022-10-19T06:31:16;98866.50;;;9.38;100.00
36190;BME280;22232;50.914;13.858;2022-10-19T06:33:44;98859.31;;;9.39;100.00
36190;BME280;22232;50.914;13.858;2022-10-19T06:36:20;98862.22;;;9.44;100.00
36190;BME280;22232;50.914;13.858;2022-10-19T06:38:49;98857.97;;;9.50;100.00
36190;BME280;22232;50.914;13.858;2022-10-19T06:41:16;98861.25;;;9.58;100.00
36190;BME280;22232;50.914;13.858;2022-10-19T06:43:48;98864.97;;;9.64;100.00
36190;BME280;22232;50.914;13.858;2022-10-19T06:46:16;98867.25;;;9.67;100.00
36190;BME280;22232;50.914;13.858;2022-10-19T06:48:51;98868.69;;;9.70;100.00
36190;BME280;22232;50.914;13.858;2022-10-19T06:51:20;98871.59;;;9.75;100.00
36190;BME280;22232;50.914;13.858;2022-10-19T06:53:48;98871.97;;;9.72;100.00
36190;BME280;22232;50.914;13.858;2022-10-19T06:56:20;98875.47;;;9.79;100.00
36190;BME280;22232;50.914;13.858;2022-10-19T06:58:48;98873.44;;;9.81;100.00
36190;BME280;22232;50.914;13.858;2022-10-19T07:01:16;98874.50;;;9.86;100.00
36190;BME280;22232;50.914;13.858;2022-10-19T07:03:43;98879.03;;;9.93;100.00
36190;BME280;22232;50.914;13.858;2022-10-19T07:06:12;98874.13;;;10.03;100.00
36190;BME280;22232;50.914;13.858;2022-10-19T07:08:41;98873.31;;;10.09;100.00
36190;BME280;22232;50.914;13.858;2022-10-19T07:11:11;98872.09;;;10.11;100.00
36190;BME280;22232;50.914;13.858;2022-10-19T07:13:40;98880.34;;;10.23;100.00
36190;BME280;22232;50.914;13.858;2022-10-19T07:16:13;98882.88;;;10.38;100.00
36190;BME280;22232;50.914;13.858;2022-10-19T07:18:49;98879.38;;;10.51;100.00
36190;BME280;22232;50.914;13.858;2022-10-19T07:21:19;98884.72;;;10.51;100.00
36190;BME280;22232;50.914;13.858;2022-10-19T07:23:47;98880.84;;;10.53;100.00
36190;BME280;22232;50.914;13.858;2022-10-19T07:26:25;98881.44;;;10.49;100.00
36190;BME280;22232;50.914;13.858;2022-10-19T07:28:55;98884.72;;;10.64;100.00
36190;BME280;22232;50.914;13.858;2022-10-19T07:31:25;98880.63;;;10.75;100.00
36190;BME280;22232;50.914;13.858;2022-10-19T07:34:00;98877.34;;;10.73;100.00
36190;BME280;22232;50.914;13.858;2022-10-19T07:36:30;98886.56;;;10.77;100.00
36190;BME280;22232;50.914;13.858;2022-10-19T07:39:03;98883.50;;;11.00;100.00
36190;BME280;22232;50.914;13.858;2022-10-19T07:41:33;98886.56;;;11.10;100.00
36190;BME280;22232;50.914;13.858;2022-10-19T07:44:03;98885.72;;;11.16;100.00
36190;BME280;22232;50.914;13.858;2022-10-19T07:46:31;98881.22;;;11.10;100.00
36190;BME280;22232;50.914;13.858;2022-10-19T07:49:00;98884.28;;;11.07;100.00
36190;BME280;22232;50.914;13.858;2022-10-19T07:51:28;98878.34;;;11.12;100.00
36190;BME280;22232;50.914;13.858;2022-10-19T07:54:00;98884.72;;;11.17;100.00
36190;BME280;22232;50.914;13.858;2022-10-19T07:56:28;98884.28;;;11.07;100.00
36190;BME280;22232;50.914;13.858;2022-10-19T07:58:58;98890.66;;;10.86;100.00
36190;BME280;22232;50.914;13.858;2022-10-19T08:01:31;98896.03;;;10.73;100.00
36190;BME280;22232;50.914;13.858;2022-10-19T08:03:59;98904.25;;;10.78;100.00
36190;BME280;22232;50.914;13.858;2022-10-19T08:06:47;98896.03;;;10.79;100.00
36190;BME280;22232;50.914;13.858;2022-10-19T08:09:15;98898.06;;;10.71;100.00
36190;BME280;22232;50.914;13.858;2022-10-19T08:12:03;98902.59;;;10.77;100.00
36190;BME280;22232;50.914;13.858;2022-10-19T08:14:32;98906.06;;;10.71;100.00
36190;BME280;22232;50.914;13.858;2022-10-19T08:16:59;98909.59;;;10.71;100.00
36190;BME280;22232;50.914;13.858;2022-10-19T08:19:27;98911.41;;;10.71;100.00
36190;BME280;22232;50.914;13.858;2022-10-19T08:21:54;98911.84;;;10.81;100.00
36190;BME280;22232;50.914;13.858;2022-10-19T08:24:22;98915.75;;;10.72;100.00
36190;BME280;22232;50.914;13.858;2022-10-19T08:26:49;98911.63;;;10.83;100.00
36190;BME280;22232;50.914;13.858;2022-10-19T08:29:19;98910.78;;;10.89;100.00
36190;BME280;22232;50.914;13.858;2022-10-19T08:31:47;98913.88;;;10.92;100.00
36190;BME280;22232;50.914;13.858;2022-10-19T08:34:15;98914.91;;;10.85;100.00
36190;BME280;22232;50.914;13.858;2022-10-19T08:36:43;98918.41;;;10.78;100.00
36190;BME280;22232;50.914;13.858;2022-10-19T08:39:11;98923.94;;;10.57;100.00
36190;BME280;22232;50.914;13.858;2022-10-19T08:49:19;98917.31;;;10.46;100.00
36190;BME280;22232;50.914;13.858;2022-10-19T08:51:51;98913.03;;;10.52;100.00
36190;BME280;22232;50.914;13.858;2022-10-19T08:54:21;98912.63;;;10.55;100.00
36190;BME280;22232;50.914;13.858;2022-10-19T08:57:13;98912.66;;;10.75;100.00
36190;BME280;22232;50.914;13.858;2022-10-19T08:59:48;98910.59;;;10.70;100.00
36190;BME280;22232;50.914;13.858;2022-10-19T09:02:29;98911.84;;;10.74;100.00
36190;BME280;22232;50.914;13.858;2022-10-19T09:05:19;98906.69;;;10.86;100.00
36190;BME280;22232;50.914;13.858;2022-10-19T09:07:52;98908.53;;;10.92;100.00
36190;BME280;22232;50.914;13.858;2022-10-19T09:10:25;98904.88;;;10.87;100.00
36190;BME280;22232;50.914;13.858;2022-10-19T09:16:03;98912.84;;;10.60;100.00
36190;BME280;22232;50.914;13.858;2022-10-19T09:18:33;98909.16;;;10.61;100.00
36190;BME280;22232;50.914;13.858;2022-10-19T09:21:14;98916.56;;;10.72;100.00
36190;BME280;22232;50.914;13.858;2022-10-19T09:27:45;98913.25;;;10.70;100.00
36190;BME280;22232;50.914;13.858;2022-10-19T09:30:21;98920.25;;;10.71;100.00
36190;BME280;22232;50.914;13.858;2022-10-19T09:32:58;98919.22;;;10.59;100.00
36190;BME280;22232;50.914;13.858;2022-10-19T09:35:35;98917.59;;;10.71;100.00
36190;BME280;22232;50.914;13.858;2022-10-19T09:38:04;98917.81;;;10.90;100.00
36190;BME280;22232;50.914;13.858;2022-10-19T09:40:34;98910.19;;;10.93;100.00
36190;BME280;22232;50.914;13.858;2022-10-19T09:43:04;98905.25;;;10.97;100.00
36190;BME280;22232;50.914;13.858;2022-10-19T09:45:52;98902.16;;;11.07;100.00
36190;BME280;22232;50.914;13.858;2022-10-19T09:48:43;98905.44;;;11.22;100.00
36190;BME280;22232;50.914;13.858;2022-10-19T09:51:15;98908.00;;;11.68;100.00
36190;BME280;22232;50.914;13.858;2022-10-19T09:53:51;98902.00;;;11.86;100.00
36190;BME280;22232;50.914;13.858;2022-10-19T09:56:28;98906.69;;;11.98;100.00
36190;BME280;22232;50.914;13.858;2022-10-19T09:58:57;98906.09;;;11.82;100.00
36190;BME280;22232;50.914;13.858;2022-10-19T10:01:32;98907.50;;;11.07;100.00
36190;BME280;22232;50.914;13.858;2022-10-19T10:04:14;98911.00;;;11.20;100.00
36190;BME280;22232;50.914;13.858;2022-10-19T10:06:45;98915.09;;;11.30;100.00
36190;BME280;22232;50.914;13.858;2022-10-19T10:09:17;98920.59;;;11.48;100.00
36190;BME280;22232;50.914;13.858;2022-10-19T10:11:47;98913.94;;;11.77;100.00
36190;BME280;22232;50.914;13.858;2022-10-19T10:14:20;98908.53;;;11.97;100.00
36190;BME280;22232;50.914;13.858;2022-10-19T10:17:01;98906.16;;;11.69;100.00
36190;BME280;22232;50.914;13.858;2022-10-19T10:19:32;98920.41;;;11.36;100.00
36190;BME280;22232;50.914;13.858;2022-10-19T10:22:02;98919.00;;;11.20;100.00
36190;BME280;22232;50.914;13.858;2022-10-19T10:24:32;98926.00;;;10.95;100.00
36190;BME280;22232;50.914;13.858;2022-10-19T10:27:03;98914.50;;;10.88;100.00
36190;BME280;22232;50.914;13.858;2022-10-19T10:29:37;98916.16;;;10.75;100.00
36190;BME280;22232;50.914;13.858;2022-10-19T10:32:12;98929.66;;;10.61;100.00
36190;BME280;22232;50.914;13.858;2022-10-19T10:34:44;98925.19;;;10.74;100.00
36190;BME280;22232;50.914;13.858;2022-10-19T10:37:43;98922.69;;;10.79;100.00
36190;BME280;22232;50.914;13.858;2022-10-19T10:40:26;98922.91;;;10.98;100.00
36190;BME280;22232;50.914;13.858;2022-10-19T10:43:15;98920.44;;;11.10;100.00
36190;BME280;22232;50.914;13.858;2022-10-19T10:45:51;98914.69;;;11.26;100.00
36190;BME280;22232;50.914;13.858;2022-10-19T10:48:27;98917.94;;;11.35;100.00
36190;BME280;22232;50.914;13.858;2022-10-19T10:50:58;98913.91;;;10.99;100.00
36190;BME280;22232;50.914;13.858;2022-10-19T10:53:30;98916.13;;;10.95;100.00
36190;BME280;22232;50.914;13.858;2022-10-19T10:55:58;98925.59;;;11.11;100.00
36190;BME280;22232;50.914;13.858;2022-10-19T10:58:40;98918.63;;;11.17;100.00
36190;BME280;22232;50.914;13.858;2022-10-19T11:01:32;98922.91;;;11.24;100.00
36190;BME280;22232;50.914;13.858;2022-10-19T11:04:21;98923.50;;;11.40;100.00
36190;BME280;22232;50.914;13.858;2022-10-19T11:06:54;98918.72;;;11.55;100.00
36190;BME280;22232;50.914;13.858;2022-10-19T11:09:34;98919.78;;;11.54;100.00
36190;BME280;22232;50.914;13.858;2022-10-19T11:12:04;98930.47;;;11.54;100.00
36190;BME280;22232;50.914;13.858;2022-10-19T11:14:50;98923.50;;;11.40;100.00
36190;BME280;22232;50.914;13.858;2022-10-19T11:17:23;98931.09;;;11.36;100.00
36190;BME280;22232;50.914;13.858;2022-10-19T11:19:52;98926.38;;;11.25;100.00
36190;BME280;22232;50.914;13.858;2022-10-19T11:28:22;98927.03;;;10.94;100.00
36190;BME280;22232;50.914;13.858;2022-10-19T11:31:07;98932.16;;;10.95;100.00
36190;BME280;22232;50.914;13.858;2022-10-19T11:33:43;98920.66;;;10.88;100.00
36190;BME280;22232;50.914;13.858;2022-10-19T11:40:26;98921.88;;;10.59;100.00
36190;BME280;22232;50.914;13.858;2022-10-19T11:43:17;98921.66;;;10.61;100.00
36190;BME280;22232;50.914;13.858;2022-10-19T11:46:04;98919.41;;;10.51;100.00
36190;BME280;22232;50.914;13.858;2022-10-19T11:54:22;98918.16;;;10.47;100.00
36190;BME280;22232;50.914;13.858;2022-10-19T11:57:02;98924.91;;;10.43;100.00
36190;BME280;22232;50.914;13.858;2022-10-19T12:05:36;98910.00;;;10.75;100.00
36190;BME280;22232;50.914;13.858;2022-10-19T12:14:22;98906.09;;;10.77;100.00
36190;BME280;22232;50.914;13.858;2022-10-19T12:16:57;98890.88;;;10.91;100.00
36190;BME280;22232;50.914;13.858;2022-10-19T12:19:31;98889.63;;;11.07;100.00
36190;BME280;22232;50.914;13.858;2022-10-19T12:22:01;98883.28;;;11.08;100.00
36190;BME280;22232;50.914;13.858;2022-10-19T12:24:32;98888.59;;;11.21;100.00
36190;BME280;22232;50.914;13.858;2022-10-19T12:27:00;98895.59;;;11.29;100.00
36190;BME280;22232;50.914;13.858;2022-10-19T12:29:35;98898.88;;;11.24;100.00
36190;BME280;22232;50.914;13.858;2022-10-19T12:32:04;98904.19;;;11.31;100.00
36190;BME280;22232;50.914;13.858;2022-10-19T12:34:55;98898.06;;;11.24;100.00
36190;BME280;22232;50.914;13.858;2022-10-19T12:37:48;98892.50;;;11.19;100.00
36190;BME280;22232;50.914;13.858;2022-10-19T12:40:44;98898.47;;;10.94;100.00
36190;BME280;22232;50.914;13.858;2022-10-19T12:43:19;98892.09;;;11.15;100.00
36190;BME280;22232;50.914;13.858;2022-10-19T12:48:37;98883.22;;;11.35;100.00
36190;BME280;22232;50.914;13.858;2022-10-19T12:51:12;98884.25;;;11.34;100.00
36190;BME280;22232;50.914;13.858;2022-10-19T12:53:44;98884.03;;;11.42;100.00
36190;BME280;22232;50.914;13.858;2022-10-19T12:56:47;98886.78;;;11.02;100.00
36190;BME280;22232;50.914;13.858;2022-10-19T13:01:49;98893.13;;;10.68;100.00
36190;BME280;22232;50.914;13.858;2022-10-19T13:04:23;98888.41;;;10.76;100.00
36190;BME280;22232;50.914;13.858;2022-10-19T13:07:04;98883.50;;;10.87;100.00
36190;BME280;22232;50.914;13.858;2022-10-19T13:09:35;98880.19;;;11.05;100.00
36190;BME280;22232;50.914;13.858;2022-10-19T13:15:00;98882.69;;;10.66;100.00
36190;BME280;22232;50.914;13.858;2022-10-19T13:28:50;98870.97;;;11.14;100.00
36190;BME280;22232;50.914;13.858;2022-10-19T13:38:39;98859.97;;;11.48;100.00
36190;BME280;22232;50.914;13.858;2022-10-19T13:41:18;98859.19;;;11.41;100.00
36190;BME280;22232;50.914;13.858;2022-10-19T13:57:09;98870.56;;;10.70;100.00
36190;BME280;22232;50.914;13.858;2022-10-19T13:59:58;98872.00;;;10.66;100.00
36190;BME280;22232;50.914;13.858;2022-10-19T14:10:36;98852.88;;;11.09;100.00
36190;BME280;22232;50.914;13.858;2022-10-19T14:13:23;98855.94;;;11.19;100.00
36190;BME280;22232;50.914;13.858;2022-10-19T14:15:54;98856.13;;;11.24;100.00
36190;BME280;22232;50.914;13.858;2022-10-19T14:18:28;98847.09;;;11.25;100.00
36190;BME280;22232;50.914;13.858;2022-10-19T14:21:06;98837.66;;;11.23;100.00
36190;BME280;22232;50.914;13.858;2022-10-19T14:23:36;98843.44;;;11.20;100.00
36190;BME280;22232;50.914;13.858;2022-10-19T14:26:12;98847.50;;;11.29;100.00
36190;BME280;22232;50.914;13.858;2022-10-19T14:28:40;98840.72;;;11.27;100.00
36190;BME280;22232;50.914;13.858;2022-10-19T14:31:16;98844.63;;;11.24;100.00
36190;BME280;22232;50.914;13.858;2022-10-19T14:33:46;98842.59;;;11.26;100.00
36190;BME280;22232;50.914;13.858;2022-10-19T14:36:19;98847.72;;;11.28;100.00
36190;BME280;22232;50.914;13.858;2022-10-19T14:38:54;98844.63;;;11.31;100.00
36190;BME280;22232;50.914;13.858;2022-10-19T14:43:54;98848.75;;;11.27;100.00
36190;BME280;22232;50.914;13.858;2022-10-19T14:46:29;98845.03;;;11.28;100.00
36190;BME280;22232;50.914;13.858;2022-10-19T14:49:09;98834.78;;;11.24;100.00
36190;BME280;22232;50.914;13.858;2022-10-19T14:51:57;98837.47;;;11.11;100.00
36190;BME280;22232;50.914;13.858;2022-10-19T14:54:31;98836.03;;;11.09;100.00
36190;BME280;22232;50.914;13.858;2022-10-19T14:57:07;98834.81;;;10.98;100.00
36190;BME280;22232;50.914;13.858;2022-10-19T14:59:44;98840.56;;;11.01;100.00
36190;BME280;22232;50.914;13.858;2022-10-19T15:02:21;98846.75;;;10.89;100.00
36190;BME280;22232;50.914;13.858;2022-10-19T15:04:51;98844.28;;;10.94;100.00